地図

経路データ

SID SEASON NUMBER BASIN SUBBASIN NAME ISO_TIME NATURE LAT LON WMO_WIND WMO_PRES WMO_AGENCY TRACK_TYPE DIST2LAND LANDFALL IFLAG USA_AGENCY USA_ATCF_ID USA_LAT USA_LON USA_RECORD USA_STATUS USA_WIND USA_PRES USA_SSHS USA_R34_NE USA_R34_SE USA_R34_SW USA_R34_NW USA_R50_NE USA_R50_SE USA_R50_SW USA_R50_NW USA_R64_NE USA_R64_SE USA_R64_SW USA_R64_NW USA_POCI USA_ROCI USA_RMW USA_EYE TOKYO_LAT TOKYO_LON TOKYO_GRADE TOKYO_WIND TOKYO_PRES TOKYO_R50_DIR TOKYO_R50_LONG TOKYO_R50_SHORT TOKYO_R30_DIR TOKYO_R30_LONG TOKYO_R30_SHORT TOKYO_LAND CMA_LAT CMA_LON CMA_CAT CMA_WIND CMA_PRES HKO_LAT HKO_LON HKO_CAT HKO_WIND HKO_PRES NEWDELHI_LAT NEWDELHI_LON NEWDELHI_GRADE NEWDELHI_WIND NEWDELHI_PRES NEWDELHI_CI NEWDELHI_DP NEWDELHI_POCI REUNION_LAT REUNION_LON REUNION_TYPE REUNION_WIND REUNION_PRES REUNION_TNUM REUNION_CI REUNION_RMW REUNION_R34_NE REUNION_R34_SE REUNION_R34_SW REUNION_R34_NW REUNION_R50_NE REUNION_R50_SE REUNION_R50_SW REUNION_R50_NW REUNION_R64_NE REUNION_R64_SE REUNION_R64_SW REUNION_R64_NW BOM_LAT BOM_LON BOM_TYPE BOM_WIND BOM_PRES BOM_TNUM BOM_CI BOM_RMW BOM_R34_NE BOM_R34_SE BOM_R34_SW BOM_R34_NW BOM_R50_NE BOM_R50_SE BOM_R50_SW BOM_R50_NW BOM_R64_NE BOM_R64_SE BOM_R64_SW BOM_R64_NW BOM_ROCI BOM_POCI BOM_EYE BOM_POS_METHOD BOM_PRES_METHOD NADI_LAT NADI_LON NADI_CAT NADI_WIND NADI_PRES WELLINGTON_LAT WELLINGTON_LON WELLINGTON_WIND WELLINGTON_PRES DS824_LAT DS824_LON DS824_STAGE DS824_WIND DS824_PRES TD9636_LAT TD9636_LON TD9636_STAGE TD9636_WIND TD9636_PRES TD9635_LAT TD9635_LON TD9635_WIND TD9635_PRES TD9635_ROCI NEUMANN_LAT NEUMANN_LON NEUMANN_CLASS NEUMANN_WIND NEUMANN_PRES MLC_LAT MLC_LON MLC_CLASS MLC_WIND MLC_PRES USA_GUST BOM_GUST BOM_GUST_PER REUNION_GUST REUNION_GUST_PER USA_SEAHGT USA_SEARAD_NE USA_SEARAD_SE USA_SEARAD_SW USA_SEARAD_NW STORM_SPEED STORM_DIR
1947056N06089 1947 20 NI BB NOT_NAMED 1947-02-24 18:00:00 TS 5.90000 89.1000 main 676 676 O________O____ jtwc_io IO011947 5.90000 89.1000 -1 5.90000 89.1000 TC 3 314
1947056N06089 1947 20 NI BB NOT_NAMED 1947-02-24 21:00:00 TS 6.00251 88.9975 main 688 688 P________P____ IO011947 6.00251 88.9975 -1 6.00251 88.9975 TC 3 315
1947056N06089 1947 20 NI BB NOT_NAMED 1947-02-25 00:00:00 TS 6.10000 88.9000 main 699 699 O________O____ jtwc_io IO011947 6.10000 88.9000 -1 6.10000 88.9000 TC 25 3 315
1947056N06089 1947 20 NI BB NOT_NAMED 1947-02-25 03:00:00 TS 6.19333 88.8067 main 711 711 P________PO___ IO011947 6.19249 88.8075 -1 6.19249 88.8075 TC 25 6.20000 88.8000 1 3 316
1947056N06089 1947 20 NI BB NOT_NAMED 1947-02-25 06:00:00 TS 6.30781 88.6978 main 723 723 O________OP___ jtwc_io IO011947 6.30000 88.7000 -1 6.30000 88.7000 TC 25 6.33907 88.6891 1 4 316
1947056N06089 1947 20 NI BB NOT_NAMED 1947-02-25 09:00:00 TS 6.44796 88.5616 main 736 719 P________PP___ IO011947 6.43500 88.5575 -1 6.43500 88.5575 TC 25 6.48250 88.5725 1 4 317
1947056N06089 1947 20 NI BB NOT_NAMED 1947-02-25 12:00:00 TS 6.61156 88.4149 main 719 707 O________OP___ jtwc_io IO011947 6.60000 88.4000 -1 6.60000 88.4000 TC 25 6.63468 88.4447 1 5 320
1947056N06089 1947 20 NI BB NOT_NAMED 1947-02-25 15:00:00 TS 6.79500 88.2667 main 707 684 P________PO___ IO011947 6.79250 88.2500 -1 6.79250 88.2500 TC 25 6.80000 88.3000 1 5 322
1947056N06089 1947 20 NI BB NOT_NAMED 1947-02-25 18:00:00 TS 6.99334 88.1118 main 684 673 O________OP___ jtwc_io IO011947 7.00000 88.1000 -1 7.00000 88.1000 TC 25 6.98001 88.1354 1 5 323
1947056N06089 1947 20 NI BB NOT_NAMED 1947-02-25 21:00:00 TS 7.19833 87.9575 main 674 652 P________PP___ IO011947 7.21499 87.9575 -1 7.21499 87.9575 TC 25 7.16502 87.9576 1 5 321
1947056N06089 1947 20 NI BB NOT_NAMED 1947-02-26 00:00:00 TS 7.38084 87.7920 main 653 631 O________OP___ jtwc_io IO011947 7.40000 87.8000 -1 7.40000 87.8000 TC 25 7.34251 87.7760 1 5 311
1947056N06089 1947 20 NI BB NOT_NAMED 1947-02-26 03:00:00 TS 7.51001 87.6000 main 631 610 P________PO___ IO011947 7.51501 87.6000 -1 7.51501 87.6000 TC 25 7.50000 87.6000 1 4 301
1947056N06089 1947 20 NI BB NOT_NAMED 1947-02-26 06:00:00 TS 7.60718 87.4129 main 610 599 O________OP___ jtwc_io IO011947 7.60000 87.4000 -1 7.60000 87.4000 TC 25 7.62154 87.4387 1 4 300
1947056N06089 1947 20 NI BB NOT_NAMED 1947-02-26 09:00:00 TS 7.70749 87.2516 main 601 580 P________PP___ IO011947 7.69999 87.2350 -1 7.69999 87.2350 TC 25 7.72247 87.2849 1 4 304
1947056N06089 1947 20 NI BB NOT_NAMED 1947-02-26 12:00:00 TS 7.80406 87.1129 main 580 571 O________OP___ jtwc_io IO011947 7.80000 87.1000 -1 7.80000 87.1000 TC 25 7.81217 87.1387 1 3 307
1947056N06089 1947 20 NI BB NOT_NAMED 1947-02-26 15:00:00 TS 7.89999 87.0000 main 571 562 P________PO___ IO011947 7.89999 87.0000 -1 7.89999 87.0000 TC 25 7.90000 87.0000 1 3 312
1947056N06089 1947 20 NI BB NOT_NAMED 1947-02-26 18:00:00 TS 8.00134 86.8920 main 562 552 O________OP___ jtwc_io IO011947 8.00000 86.9000 -1 8.00000 86.9000 TC 25 8.00402 86.8759 1 3 310
1947056N06089 1947 20 NI BB NOT_NAMED 1947-02-26 21:00:00 TS 8.10248 86.7575 main 554 533 P________PP___ IO011947 8.10000 86.7575 -1 8.10000 86.7575 TC 25 8.10744 86.7575 1 3 306
1947056N06089 1947 20 NI BB NOT_NAMED 1947-02-27 00:00:00 TS 8.20238 86.6118 main 533 522 O________OP___ jtwc_io IO011947 8.20000 86.6000 -1 8.20000 86.6000 TC 25 8.20714 86.6353 1 4 305
1947056N06089 1947 20 NI BB NOT_NAMED 1947-02-27 03:00:00 TS 8.30500 86.4667 main 523 503 P________PO___ IO011947 8.30749 86.4500 -1 8.30749 86.4500 TC 25 8.30000 86.5000 1 4 303
1947056N06089 1947 20 NI BB NOT_NAMED 1947-02-27 06:00:00 TS 8.39678 86.3118 main 503 493 O________OP___ jtwc_io IO011947 8.40000 86.3000 -1 8.40000 86.3000 TC 25 8.39033 86.3353 1 3 297
1947056N06089 1947 20 NI BB NOT_NAMED 1947-02-27 09:00:00 TS 8.46250 86.1525 main 495 473 P________PP___ IO011947 8.45749 86.1500 -1 8.45749 86.1500 TC 25 8.47252 86.1575 1 3 290
1947056N06089 1947 20 NI BB NOT_NAMED 1947-02-27 12:00:00 TS 8.51448 85.9920 main 473 454 O________OP___ jtwc_io IO011947 8.50000 86.0000 -1 8.50000 86.0000 TC 25 8.54345 85.9760 1 3 288
1947056N06089 1947 20 NI BB NOT_NAMED 1947-02-27 15:00:00 TS 8.56666 85.8333 main 454 444 P________PO___ IO011947 8.54999 85.8500 -1 8.54999 85.8500 TC 25 8.60000 85.8000 1 3 289
1947056N06089 1947 20 NI BB NOT_NAMED 1947-02-27 18:00:00 TS 8.61441 85.6945 main 444 433 O________OP___ jtwc_io IO011947 8.60000 85.7000 -1 8.60000 85.7000 TC 25 8.64324 85.6834 1 3 290
1947056N06089 1947 20 NI BB NOT_NAMED 1947-02-27 21:00:00 TS 8.66237 85.5658 main 436 415 P________PP___ IO011947 8.65747 85.5650 -1 8.65747 85.5650 TC 25 8.67218 85.5674 1 3 286
1947056N06089 1947 20 NI BB NOT_NAMED 1947-02-28 00:00:00 TS 8.69668 85.4059 main 415 394 O________OP___ jtwc_io IO011947 8.70000 85.4000 -1 8.70000 85.4000 TC 25 8.69004 85.4178 1 4 277
1947056N06089 1947 20 NI BB NOT_NAMED 1947-02-28 03:00:00 TS 8.70496 85.1967 main 394 363 P________PO___ IO011947 8.70743 85.1950 -1 8.70743 85.1950 TC 25 8.70000 85.2000 1 5 271
1947056N06089 1947 20 NI BB NOT_NAMED 1947-02-28 06:00:00 TS 8.70246 84.8893 main 363 321 O________OP___ jtwc_io IO011947 8.70000 84.9000 -1 8.70000 84.9000 TC 25 8.70737 84.8678 1 7 270
1947056N06089 1947 20 NI BB NOT_NAMED 1947-02-28 09:00:00 TS 8.70262 84.4708 main 321 271 P________PP___ IO011947 8.70006 84.4725 -1 8.70006 84.4725 TC 25 8.70774 84.4674 1 9 270
1947056N06089 1947 20 NI BB NOT_NAMED 1947-02-28 12:00:00 TS 8.70141 84.0111 main 271 233 O________OP___ jtwc_io IO011947 8.70000 84.0000 -1 8.70000 84.0000 TC 25 8.70422 84.0334 1 9 270
1947056N06089 1947 20 NI BB NOT_NAMED 1947-02-28 15:00:00 TS 8.69997 83.5900 main 233 192 P________PO___ IO011947 8.69996 83.5850 -1 8.69996 83.5850 TC 25 8.70000 83.6000 1 8 270
1947056N06089 1947 20 NI BB NOT_NAMED 1947-02-28 18:00:00 TS 8.69911 83.1978 main 192 163 O________OP___ jtwc_io IO011947 8.70000 83.2000 -1 8.70000 83.2000 TC 25 8.69777 83.1944 1 8 270
1947056N06089 1947 20 NI BB NOT_NAMED 1947-02-28 21:00:00 TS 8.69897 82.8307 main 153 125 P________PP___ IO011947 8.70006 82.8425 -1 8.70006 82.8425 TC 25 8.69753 82.8151 1 7 270
1947056N06089 1947 20 NI BB NOT_NAMED 1947-03-01 00:00:00 TS 8.69926 82.4766 main 125 84 O________OP___ jtwc_io IO011947 8.70000 82.5000 -1 8.70000 82.5000 TC 25 8.69852 82.4532 1 7 270
1947056N06089 1947 20 NI BB NOT_NAMED 1947-03-01 03:00:00 NR 8.70000 82.1000 main 84 __________O___ IO011947 -1 TC 8.70000 82.1000 1 7 270

IBTrACS Databaseについて

本データベースは、米国NOAAが公開する1842年以降の世界の熱帯低気圧のベストトラックデータアーカイブInternational Best Track Archive for Climate Stewardship (IBTrACS)を、ウェブで閲覧しやすい形式に変換したものです。

最終更新日:2021-10-08